sensor_id;sensor_type;location;lat;lon;timestamp;P1;durP1;ratioP1;P2;durP2;ratioP2
35743;SDS011;21867;52.012;4.324;2023-09-19T00:00:00;7.67;;;2.20;;
35743;SDS011;21867;52.012;4.324;2023-09-19T00:02:29;7.70;;;2.60;;
35743;SDS011;21867;52.012;4.324;2023-09-19T00:05:26;8.10;;;3.27;;
35743;SDS011;21867;52.012;4.324;2023-09-19T00:07:54;7.07;;;3.27;;
35743;SDS011;21867;52.012;4.324;2023-09-19T00:10:21;9.23;;;2.60;;
35743;SDS011;21867;52.012;4.324;2023-09-19T00:19:59;10.70;;;2.90;;
35743;SDS011;21867;52.012;4.324;2023-09-19T00:22:28;7.47;;;2.87;;
35743;SDS011;21867;52.012;4.324;2023-09-19T00:24:55;7.17;;;2.53;;
35743;SDS011;21867;52.012;4.324;2023-09-19T00:27:23;7.07;;;2.13;;
35743;SDS011;21867;52.012;4.324;2023-09-19T00:29:50;7.33;;;2.70;;
35743;SDS011;21867;52.012;4.324;2023-09-19T00:32:29;8.60;;;2.37;;
35743;SDS011;21867;52.012;4.324;2023-09-19T00:34:57;9.03;;;2.60;;
35743;SDS011;21867;52.012;4.324;2023-09-19T00:37:24;8.70;;;2.60;;
35743;SDS011;21867;52.012;4.324;2023-09-19T00:39:53;8.90;;;2.90;;
35743;SDS011;21867;52.012;4.324;2023-09-19T00:42:20;8.90;;;2.63;;
35743;SDS011;21867;52.012;4.324;2023-09-19T00:45:00;6.80;;;2.43;;
35743;SDS011;21867;52.012;4.324;2023-09-19T00:47:27;7.63;;;2.93;;
35743;SDS011;21867;52.012;4.324;2023-09-19T00:49:55;8.77;;;3.27;;
35743;SDS011;21867;52.012;4.324;2023-09-19T00:52:23;6.60;;;2.23;;
35743;SDS011;21867;52.012;4.324;2023-09-19T00:54:52;8.30;;;2.80;;
35743;SDS011;21867;52.012;4.324;2023-09-19T00:57:20;10.37;;;3.10;;
35743;SDS011;21867;52.012;4.324;2023-09-19T00:59:48;11.53;;;2.87;;
35743;SDS011;21867;52.012;4.324;2023-09-19T01:04:54;8.07;;;3.23;;
35743;SDS011;21867;52.012;4.324;2023-09-19T01:07:21;11.27;;;2.80;;
35743;SDS011;21867;52.012;4.324;2023-09-19T01:09:49;11.83;;;3.13;;
35743;SDS011;21867;52.012;4.324;2023-09-19T01:12:24;12.63;;;3.00;;
35743;SDS011;21867;52.012;4.324;2023-09-19T01:14:59;11.07;;;2.90;;
35743;SDS011;21867;52.012;4.324;2023-09-19T01:24:10;11.47;;;2.70;;
35743;SDS011;21867;52.012;4.324;2023-09-19T01:26:50;15.00;;;3.33;;
35743;SDS011;21867;52.012;4.324;2023-09-19T01:29:26;13.60;;;3.72;;
35743;SDS011;21867;52.012;4.324;2023-09-19T01:31:58;11.70;;;3.50;;
35743;SDS011;21867;52.012;4.324;2023-09-19T01:34:26;10.80;;;2.97;;
35743;SDS011;21867;52.012;4.324;2023-09-19T01:36:59;7.73;;;3.23;;
35743;SDS011;21867;52.012;4.324;2023-09-19T01:39:26;11.80;;;2.83;;
35743;SDS011;21867;52.012;4.324;2023-09-19T01:41:55;6.10;;;2.67;;
35743;SDS011;21867;52.012;4.324;2023-09-19T01:44:25;14.03;;;3.53;;
35743;SDS011;21867;52.012;4.324;2023-09-19T01:50:48;8.40;;;2.67;;
35743;SDS011;21867;52.012;4.324;2023-09-19T01:53:22;8.80;;;2.70;;
35743;SDS011;21867;52.012;4.324;2023-09-19T01:55:51;8.23;;;2.60;;
35743;SDS011;21867;52.012;4.324;2023-09-19T01:58:20;8.83;;;2.90;;
35743;SDS011;21867;52.012;4.324;2023-09-19T02:00:48;9.80;;;2.63;;
35743;SDS011;21867;52.012;4.324;2023-09-19T02:03:16;6.67;;;2.63;;
35743;SDS011;21867;52.012;4.324;2023-09-19T02:08:40;10.97;;;2.30;;
35743;SDS011;21867;52.012;4.324;2023-09-19T02:11:07;7.40;;;2.60;;
35743;SDS011;21867;52.012;4.324;2023-09-19T02:13:34;7.33;;;2.60;;
35743;SDS011;21867;52.012;4.324;2023-09-19T02:16:01;11.70;;;3.17;;
35743;SDS011;21867;52.012;4.324;2023-09-19T02:18:29;6.73;;;2.53;;
35743;SDS011;21867;52.012;4.324;2023-09-19T02:28:17;9.60;;;2.67;;
35743;SDS011;21867;52.012;4.324;2023-09-19T02:30:47;8.27;;;2.47;;
35743;SDS011;21867;52.012;4.324;2023-09-19T02:33:15;5.63;;;2.53;;
35743;SDS011;21867;52.012;4.324;2023-09-19T02:35:42;8.40;;;3.08;;
35743;SDS011;21867;52.012;4.324;2023-09-19T02:38:10;6.43;;;2.37;;
35743;SDS011;21867;52.012;4.324;2023-09-19T02:43:08;5.73;;;2.00;;
35743;SDS011;21867;52.012;4.324;2023-09-19T02:45:37;8.37;;;2.47;;
35743;SDS011;21867;52.012;4.324;2023-09-19T02:48:04;6.67;;;2.53;;
35743;SDS011;21867;52.012;4.324;2023-09-19T02:50:32;6.60;;;2.93;;
35743;SDS011;21867;52.012;4.324;2023-09-19T02:52:59;4.33;;;1.90;;
35743;SDS011;21867;52.012;4.324;2023-09-19T02:55:26;10.53;;;2.47;;
35743;SDS011;21867;52.012;4.324;2023-09-19T02:57:54;12.33;;;2.53;;
35743;SDS011;21867;52.012;4.324;2023-09-19T03:00:22;12.77;;;3.17;;
35743;SDS011;21867;52.012;4.324;2023-09-19T03:02:52;7.07;;;2.67;;
35743;SDS011;21867;52.012;4.324;2023-09-19T03:05:19;8.97;;;2.40;;
35743;SDS011;21867;52.012;4.324;2023-09-19T03:07:48;7.60;;;2.57;;
35743;SDS011;21867;52.012;4.324;2023-09-19T03:10:15;8.07;;;2.67;;
35743;SDS011;21867;52.012;4.324;2023-09-19T03:12:50;8.40;;;2.70;;
35743;SDS011;21867;52.012;4.324;2023-09-19T03:15:18;10.47;;;3.83;;
35743;SDS011;21867;52.012;4.324;2023-09-19T03:17:51;10.10;;;3.27;;
35743;SDS011;21867;52.012;4.324;2023-09-19T03:20:23;7.47;;;2.17;;
35743;SDS011;21867;52.012;4.324;2023-09-19T03:22:51;5.10;;;2.23;;
35743;SDS011;21867;52.012;4.324;2023-09-19T03:25:19;7.70;;;3.03;;
35743;SDS011;21867;52.012;4.324;2023-09-19T03:27:56;6.53;;;2.20;;
35743;SDS011;21867;52.012;4.324;2023-09-19T03:30:24;11.80;;;2.63;;
35743;SDS011;21867;52.012;4.324;2023-09-19T03:32:53;9.07;;;2.83;;
35743;SDS011;21867;52.012;4.324;2023-09-19T03:35:20;6.57;;;2.40;;
35743;SDS011;21867;52.012;4.324;2023-09-19T03:40:54;9.93;;;3.10;;
35743;SDS011;21867;52.012;4.324;2023-09-19T03:43:24;7.13;;;2.57;;
35743;SDS011;21867;52.012;4.324;2023-09-19T03:45:51;7.00;;;2.73;;
35743;SDS011;21867;52.012;4.324;2023-09-19T03:48:21;8.57;;;3.80;;
35743;SDS011;21867;52.012;4.324;2023-09-19T03:50:50;6.27;;;2.40;;
35743;SDS011;21867;52.012;4.324;2023-09-19T03:53:17;9.37;;;2.77;;
35743;SDS011;21867;52.012;4.324;2023-09-19T03:58:33;7.20;;;2.63;;
35743;SDS011;21867;52.012;4.324;2023-09-19T04:01:01;6.07;;;2.20;;
35743;SDS011;21867;52.012;4.324;2023-09-19T04:03:30;8.17;;;2.53;;
35743;SDS011;21867;52.012;4.324;2023-09-19T04:05:57;8.53;;;2.70;;
35743;SDS011;21867;52.012;4.324;2023-09-19T04:08:24;11.53;;;2.30;;
35743;SDS011;21867;52.012;4.324;2023-09-19T04:17:55;8.87;;;2.63;;
35743;SDS011;21867;52.012;4.324;2023-09-19T04:20:24;6.60;;;2.47;;
35743;SDS011;21867;52.012;4.324;2023-09-19T04:22:52;5.10;;;1.97;;
35743;SDS011;21867;52.012;4.324;2023-09-19T04:28:14;4.20;;;2.13;;
35743;SDS011;21867;52.012;4.324;2023-09-19T04:30:41;4.67;;;2.13;;
35743;SDS011;21867;52.012;4.324;2023-09-19T04:33:08;7.63;;;2.07;;
35743;SDS011;21867;52.012;4.324;2023-09-19T04:35:37;7.63;;;2.73;;
35743;SDS011;21867;52.012;4.324;2023-09-19T04:38:04;9.03;;;2.20;;
35743;SDS011;21867;52.012;4.324;2023-09-19T04:40:44;7.17;;;2.23;;
35743;SDS011;21867;52.012;4.324;2023-09-19T04:43:11;11.10;;;2.77;;
35743;SDS011;21867;52.012;4.324;2023-09-19T04:45:39;7.17;;;1.90;;
35743;SDS011;21867;52.012;4.324;2023-09-19T04:48:06;7.27;;;2.50;;
35743;SDS011;21867;52.012;4.324;2023-09-19T04:50:34;10.57;;;2.50;;
35743;SDS011;21867;52.012;4.324;2023-09-19T04:56:40;8.57;;;2.83;;
35743;SDS011;21867;52.012;4.324;2023-09-19T04:59:07;7.33;;;2.73;;
35743;SDS011;21867;52.012;4.324;2023-09-19T05:01:35;7.40;;;2.83;;
35743;SDS011;21867;52.012;4.324;2023-09-19T05:04:02;8.93;;;2.17;;
35743;SDS011;21867;52.012;4.324;2023-09-19T05:06:29;8.50;;;3.00;;
35743;SDS011;21867;52.012;4.324;2023-09-19T05:08:57;10.03;;;2.97;;
35743;SDS011;21867;52.012;4.324;2023-09-19T05:11:29;10.57;;;3.33;;
35743;SDS011;21867;52.012;4.324;2023-09-19T05:13:58;7.03;;;3.03;;
35743;SDS011;21867;52.012;4.324;2023-09-19T05:16:25;10.20;;;2.80;;
35743;SDS011;21867;52.012;4.324;2023-09-19T05:18:55;9.57;;;2.77;;
35743;SDS011;21867;52.012;4.324;2023-09-19T05:21:41;9.07;;;2.73;;
35743;SDS011;21867;52.012;4.324;2023-09-19T05:24:59;6.00;;;2.37;;
35743;SDS011;21867;52.012;4.324;2023-09-19T05:27:26;9.37;;;3.00;;
35743;SDS011;21867;52.012;4.324;2023-09-19T05:29:55;10.93;;;2.63;;
35743;SDS011;21867;52.012;4.324;2023-09-19T05:32:22;7.60;;;3.07;;
35743;SDS011;21867;52.012;4.324;2023-09-19T05:34:49;9.57;;;2.77;;
35743;SDS011;21867;52.012;4.324;2023-09-19T05:37:17;12.00;;;3.07;;
35743;SDS011;21867;52.012;4.324;2023-09-19T05:39:44;10.03;;;2.77;;
35743;SDS011;21867;52.012;4.324;2023-09-19T05:42:11;7.77;;;2.70;;
35743;SDS011;21867;52.012;4.324;2023-09-19T05:44:39;8.07;;;2.60;;
35743;SDS011;21867;52.012;4.324;2023-09-19T05:47:08;7.67;;;3.23;;
35743;SDS011;21867;52.012;4.324;2023-09-19T05:49:35;9.10;;;3.47;;
35743;SDS011;21867;52.012;4.324;2023-09-19T05:52:06;10.93;;;2.97;;
35743;SDS011;21867;52.012;4.324;2023-09-19T05:54:34;8.23;;;2.77;;
35743;SDS011;21867;52.012;4.324;2023-09-19T05:57:01;11.97;;;3.40;;
35743;SDS011;21867;52.012;4.324;2023-09-19T05:59:28;7.90;;;3.23;;
35743;SDS011;21867;52.012;4.324;2023-09-19T06:01:56;9.20;;;3.50;;
35743;SDS011;21867;52.012;4.324;2023-09-19T06:04:25;10.50;;;3.20;;
35743;SDS011;21867;52.012;4.324;2023-09-19T06:06:52;10.30;;;3.07;;
35743;SDS011;21867;52.012;4.324;2023-09-19T06:09:19;10.20;;;3.63;;
35743;SDS011;21867;52.012;4.324;2023-09-19T06:11:49;14.30;;;3.80;;
35743;SDS011;21867;52.012;4.324;2023-09-19T06:14:16;14.03;;;4.37;;
35743;SDS011;21867;52.012;4.324;2023-09-19T06:16:44;10.47;;;3.47;;
35743;SDS011;21867;52.012;4.324;2023-09-19T06:19:11;10.03;;;3.73;;
35743;SDS011;21867;52.012;4.324;2023-09-19T06:21:40;15.43;;;3.73;;
35743;SDS011;21867;52.012;4.324;2023-09-19T06:24:07;10.33;;;3.27;;
35743;SDS011;21867;52.012;4.324;2023-09-19T06:26:35;7.37;;;2.83;;
35743;SDS011;21867;52.012;4.324;2023-09-19T06:29:02;11.07;;;3.70;;
35743;SDS011;21867;52.012;4.324;2023-09-19T06:31:29;11.90;;;3.57;;
35743;SDS011;21867;52.012;4.324;2023-09-19T06:33:57;11.83;;;3.80;;
35743;SDS011;21867;52.012;4.324;2023-09-19T06:36:24;11.37;;;3.97;;
35743;SDS011;21867;52.012;4.324;2023-09-19T06:38:53;13.00;;;3.10;;
35743;SDS011;21867;52.012;4.324;2023-09-19T06:41:20;11.80;;;2.90;;
35743;SDS011;21867;52.012;4.324;2023-09-19T06:43:47;8.90;;;3.47;;
35743;SDS011;21867;52.012;4.324;2023-09-19T06:46:15;9.33;;;3.13;;
35743;SDS011;21867;52.012;4.324;2023-09-19T06:48:42;10.20;;;3.63;;
35743;SDS011;21867;52.012;4.324;2023-09-19T06:51:09;11.13;;;3.33;;
35743;SDS011;21867;52.012;4.324;2023-09-19T06:53:36;12.80;;;3.13;;
35743;SDS011;21867;52.012;4.324;2023-09-19T06:56:06;9.37;;;3.50;;
35743;SDS011;21867;52.012;4.324;2023-09-19T06:58:33;12.97;;;3.43;;
35743;SDS011;21867;52.012;4.324;2023-09-19T07:01:00;11.40;;;3.20;;
35743;SDS011;21867;52.012;4.324;2023-09-19T07:03:28;16.47;;;3.80;;
35743;SDS011;21867;52.012;4.324;2023-09-19T07:05:55;12.23;;;2.83;;
35743;SDS011;21867;52.012;4.324;2023-09-19T07:08:23;14.20;;;3.47;;
35743;SDS011;21867;52.012;4.324;2023-09-19T07:10:50;13.00;;;4.20;;
35743;SDS011;21867;52.012;4.324;2023-09-19T07:13:19;12.40;;;3.67;;
35743;SDS011;21867;52.012;4.324;2023-09-19T07:15:46;10.30;;;4.47;;
35743;SDS011;21867;52.012;4.324;2023-09-19T07:18:14;11.10;;;3.43;;
35743;SDS011;21867;52.012;4.324;2023-09-19T07:20:41;10.37;;;3.23;;
35743;SDS011;21867;52.012;4.324;2023-09-19T07:23:09;10.83;;;3.90;;
35743;SDS011;21867;52.012;4.324;2023-09-19T07:25:36;13.43;;;3.93;;
35743;SDS011;21867;52.012;4.324;2023-09-19T07:28:04;13.73;;;4.20;;
35743;SDS011;21867;52.012;4.324;2023-09-19T07:30:35;13.60;;;3.30;;
35743;SDS011;21867;52.012;4.324;2023-09-19T07:33:02;10.53;;;2.93;;
35743;SDS011;21867;52.012;4.324;2023-09-19T07:35:30;7.83;;;3.70;;
35743;SDS011;21867;52.012;4.324;2023-09-19T07:37:57;13.27;;;3.43;;
35743;SDS011;21867;52.012;4.324;2023-09-19T07:40:25;14.37;;;4.03;;
35743;SDS011;21867;52.012;4.324;2023-09-19T07:42:52;17.37;;;3.30;;
35743;SDS011;21867;52.012;4.324;2023-09-19T07:45:19;16.15;;;4.32;;
35743;SDS011;21867;52.012;4.324;2023-09-19T07:47:49;14.80;;;3.90;;
35743;SDS011;21867;52.012;4.324;2023-09-19T07:50:17;14.70;;;4.87;;
35743;SDS011;21867;52.012;4.324;2023-09-19T07:52:45;19.00;;;5.37;;
35743;SDS011;21867;52.012;4.324;2023-09-19T07:55:12;13.57;;;3.67;;
35743;SDS011;21867;52.012;4.324;2023-09-19T07:57:40;14.37;;;4.57;;
35743;SDS011;21867;52.012;4.324;2023-09-19T08:00:07;12.33;;;3.17;;
35743;SDS011;21867;52.012;4.324;2023-09-19T08:02:38;10.90;;;4.27;;
35743;SDS011;21867;52.012;4.324;2023-09-19T08:05:07;14.50;;;3.77;;
35743;SDS011;21867;52.012;4.324;2023-09-19T08:07:35;14.90;;;3.57;;
35743;SDS011;21867;52.012;4.324;2023-09-19T08:10:03;12.93;;;3.70;;
35743;SDS011;21867;52.012;4.324;2023-09-19T08:12:30;10.07;;;3.33;;
35743;SDS011;21867;52.012;4.324;2023-09-19T08:14:57;13.30;;;4.03;;
35743;SDS011;21867;52.012;4.324;2023-09-19T08:17:25;10.03;;;3.77;;
35743;SDS011;21867;52.012;4.324;2023-09-19T08:19:52;13.27;;;4.30;;
35743;SDS011;21867;52.012;4.324;2023-09-19T08:22:21;11.40;;;3.80;;
35743;SDS011;21867;52.012;4.324;2023-09-19T08:24:48;11.60;;;3.73;;
35743;SDS011;21867;52.012;4.324;2023-09-19T08:27:16;11.90;;;3.67;;
35743;SDS011;21867;52.012;4.324;2023-09-19T08:29:43;17.13;;;3.87;;
35743;SDS011;21867;52.012;4.324;2023-09-19T08:32:12;16.03;;;3.67;;
35743;SDS011;21867;52.012;4.324;2023-09-19T08:34:40;14.27;;;4.40;;
35743;SDS011;21867;52.012;4.324;2023-09-19T08:37:07;10.13;;;3.93;;
35743;SDS011;21867;52.012;4.324;2023-09-19T08:39:35;10.57;;;3.53;;
35743;SDS011;21867;52.012;4.324;2023-09-19T08:42:03;17.77;;;4.47;;
35743;SDS011;21867;52.012;4.324;2023-09-19T08:44:30;10.50;;;4.40;;
35743;SDS011;21867;52.012;4.324;2023-09-19T08:47:05;12.37;;;3.70;;
35743;SDS011;21867;52.012;4.324;2023-09-19T08:49:35;9.87;;;3.47;;
35743;SDS011;21867;52.012;4.324;2023-09-19T08:52:04;13.00;;;4.90;;
35743;SDS011;21867;52.012;4.324;2023-09-19T08:57:24;14.53;;;4.43;;
35743;SDS011;21867;52.012;4.324;2023-09-19T08:59:53;13.10;;;4.23;;
35743;SDS011;21867;52.012;4.324;2023-09-19T09:02:20;19.63;;;4.43;;
35743;SDS011;21867;52.012;4.324;2023-09-19T09:04:48;10.80;;;3.33;;
35743;SDS011;21867;52.012;4.324;2023-09-19T09:07:16;12.67;;;3.80;;
35743;SDS011;21867;52.012;4.324;2023-09-19T09:17:06;13.23;;;3.60;;
35743;SDS011;21867;52.012;4.324;2023-09-19T09:19:33;16.53;;;3.87;;
35743;SDS011;21867;52.012;4.324;2023-09-19T09:22:07;15.00;;;3.67;;
35743;SDS011;21867;52.012;4.324;2023-09-19T09:24:35;9.93;;;4.43;;
35743;SDS011;21867;52.012;4.324;2023-09-19T09:27:03;16.87;;;3.30;;
35743;SDS011;21867;52.012;4.324;2023-09-19T09:32:45;10.50;;;3.10;;
35743;SDS011;21867;52.012;4.324;2023-09-19T09:35:32;15.03;;;3.77;;
35743;SDS011;21867;52.012;4.324;2023-09-19T09:38:00;11.87;;;3.90;;
35743;SDS011;21867;52.012;4.324;2023-09-19T09:47:13;13.80;;;4.20;;
35743;SDS011;21867;52.012;4.324;2023-09-19T09:49:41;14.73;;;3.63;;
35743;SDS011;21867;52.012;4.324;2023-09-19T09:52:14;15.33;;;3.37;;
35743;SDS011;21867;52.012;4.324;2023-09-19T09:54:41;11.57;;;2.70;;
35743;SDS011;21867;52.012;4.324;2023-09-19T09:57:25;9.87;;;3.30;;
35743;SDS011;21867;52.012;4.324;2023-09-19T10:03:03;10.37;;;2.80;;
35743;SDS011;21867;52.012;4.324;2023-09-19T10:05:52;12.33;;;3.47;;
35743;SDS011;21867;52.012;4.324;2023-09-19T10:08:20;9.07;;;3.33;;
35743;SDS011;21867;52.012;4.324;2023-09-19T10:17:33;8.00;;;2.90;;
35743;SDS011;21867;52.012;4.324;2023-09-19T10:20:01;8.87;;;3.43;;
35743;SDS011;21867;52.012;4.324;2023-09-19T10:22:32;11.37;;;3.27;;
35743;SDS011;21867;52.012;4.324;2023-09-19T10:25:01;7.50;;;2.50;;
35743;SDS011;21867;52.012;4.324;2023-09-19T10:27:29;10.20;;;3.37;;
35743;SDS011;21867;52.012;4.324;2023-09-19T10:32:43;8.40;;;3.15;;
35743;SDS011;21867;52.012;4.324;2023-09-19T10:35:12;12.70;;;2.87;;
35743;SDS011;21867;52.012;4.324;2023-09-19T10:37:42;8.63;;;2.57;;
35743;SDS011;21867;52.012;4.324;2023-09-19T10:46:38;14.77;;;2.70;;
35743;SDS011;21867;52.012;4.324;2023-09-19T10:49:06;11.27;;;2.63;;
35743;SDS011;21867;52.012;4.324;2023-09-19T10:51:37;8.07;;;2.53;;
35743;SDS011;21867;52.012;4.324;2023-09-19T10:54:08;7.53;;;2.50;;
35743;SDS011;21867;52.012;4.324;2023-09-19T10:56:37;7.27;;;2.70;;
35743;SDS011;21867;52.012;4.324;2023-09-19T11:01:48;8.50;;;2.60;;
35743;SDS011;21867;52.012;4.324;2023-09-19T11:04:20;7.37;;;2.13;;
35743;SDS011;21867;52.012;4.324;2023-09-19T11:06:59;8.80;;;3.40;;
35743;SDS011;21867;52.012;4.324;2023-09-19T11:26:42;10.00;;;2.73;;
35743;SDS011;21867;52.012;4.324;2023-09-19T11:31:46;8.30;;;2.57;;
35743;SDS011;21867;52.012;4.324;2023-09-19T11:36:59;6.57;;;1.70;;
35743;SDS011;21867;52.012;4.324;2023-09-19T11:39:26;8.40;;;2.00;;
35743;SDS011;21867;52.012;4.324;2023-09-19T11:41:55;5.47;;;1.70;;
35743;SDS011;21867;52.012;4.324;2023-09-19T11:51:11;4.70;;;2.13;;
35743;SDS011;21867;52.012;4.324;2023-09-19T11:53:39;7.07;;;2.30;;
35743;SDS011;21867;52.012;4.324;2023-09-19T11:56:08;5.43;;;2.03;;
35743;SDS011;21867;52.012;4.324;2023-09-19T11:58:40;10.27;;;2.67;;
35743;SDS011;21867;52.012;4.324;2023-09-19T12:01:12;5.70;;;2.43;;
35743;SDS011;21867;52.012;4.324;2023-09-19T12:06:33;6.73;;;2.40;;
35743;SDS011;21867;52.012;4.324;2023-09-19T12:09:01;6.80;;;1.97;;
35743;SDS011;21867;52.012;4.324;2023-09-19T12:11:30;6.80;;;2.20;;
35743;SDS011;21867;52.012;4.324;2023-09-19T12:20:24;13.77;;;3.30;;
35743;SDS011;21867;52.012;4.324;2023-09-19T12:22:59;7.37;;;2.40;;
35743;SDS011;21867;52.012;4.324;2023-09-19T12:25:41;5.63;;;1.97;;
35743;SDS011;21867;52.012;4.324;2023-09-19T12:28:11;6.23;;;2.03;;
35743;SDS011;21867;52.012;4.324;2023-09-19T12:30:39;6.28;;;2.35;;
35743;SDS011;21867;52.012;4.324;2023-09-19T12:33:14;9.17;;;2.30;;
35743;SDS011;21867;52.012;4.324;2023-09-19T12:35:43;6.80;;;2.43;;
35743;SDS011;21867;52.012;4.324;2023-09-19T12:38:22;10.93;;;2.60;;
35743;SDS011;21867;52.012;4.324;2023-09-19T12:40:49;5.73;;;2.40;;
35743;SDS011;21867;52.012;4.324;2023-09-19T12:43:17;6.10;;;2.60;;
35743;SDS011;21867;52.012;4.324;2023-09-19T12:45:45;10.23;;;2.03;;
35743;SDS011;21867;52.012;4.324;2023-09-19T12:54:45;7.50;;;2.40;;
35743;SDS011;21867;52.012;4.324;2023-09-19T12:57:22;6.97;;;2.80;;
35743;SDS011;21867;52.012;4.324;2023-09-19T12:59:51;8.90;;;2.30;;
35743;SDS011;21867;52.012;4.324;2023-09-19T13:02:19;7.10;;;2.17;;
35743;SDS011;21867;52.012;4.324;2023-09-19T13:04:51;5.47;;;2.20;;
35743;SDS011;21867;52.012;4.324;2023-09-19T13:10:03;7.10;;;2.53;;
35743;SDS011;21867;52.012;4.324;2023-09-19T13:12:34;12.13;;;3.03;;
35743;SDS011;21867;52.012;4.324;2023-09-19T13:15:08;10.77;;;2.80;;
35743;SDS011;21867;52.012;4.324;2023-09-19T13:17:42;8.70;;;3.20;;
35743;SDS011;21867;52.012;4.324;2023-09-19T13:20:20;7.40;;;3.20;;
35743;SDS011;21867;52.012;4.324;2023-09-19T13:22:48;9.40;;;2.90;;
35743;SDS011;21867;52.012;4.324;2023-09-19T13:31:06;10.30;;;3.93;;
35743;SDS011;21867;52.012;4.324;2023-09-19T13:33:34;10.40;;;3.40;;
35743;SDS011;21867;52.012;4.324;2023-09-19T13:42:20;8.60;;;3.13;;
35743;SDS011;21867;52.012;4.324;2023-09-19T13:44:47;10.37;;;3.60;;
35743;SDS011;21867;52.012;4.324;2023-09-19T13:47:16;6.80;;;2.73;;
35743;SDS011;21867;52.012;4.324;2023-09-19T13:49:44;9.93;;;3.53;;
35743;SDS011;21867;52.012;4.324;2023-09-19T13:52:11;7.33;;;2.93;;
35743;SDS011;21867;52.012;4.324;2023-09-19T13:54:38;7.10;;;2.87;;
35743;SDS011;21867;52.012;4.324;2023-09-19T14:05:27;7.20;;;2.90;;
35743;SDS011;21867;52.012;4.324;2023-09-19T14:07:55;10.63;;;3.20;;
35743;SDS011;21867;52.012;4.324;2023-09-19T14:10:22;10.60;;;3.53;;
35743;SDS011;21867;52.012;4.324;2023-09-19T14:19:14;8.00;;;3.37;;
35743;SDS011;21867;52.012;4.324;2023-09-19T14:21:43;8.63;;;2.57;;
35743;SDS011;21867;52.012;4.324;2023-09-19T14:24:10;8.50;;;2.60;;
35743;SDS011;21867;52.012;4.324;2023-09-19T14:26:37;7.27;;;3.20;;
35743;SDS011;21867;52.012;4.324;2023-09-19T14:29:05;9.67;;;3.87;;
35743;SDS011;21867;52.012;4.324;2023-09-19T14:39:48;11.77;;;3.37;;
35743;SDS011;21867;52.012;4.324;2023-09-19T14:45:51;7.23;;;2.80;;
35743;SDS011;21867;52.012;4.324;2023-09-19T14:48:18;10.17;;;3.20;;
35743;SDS011;21867;52.012;4.324;2023-09-19T14:50:46;12.60;;;3.90;;
35743;SDS011;21867;52.012;4.324;2023-09-19T14:53:13;8.53;;;3.17;;
35743;SDS011;21867;52.012;4.324;2023-09-19T14:55:42;13.20;;;3.47;;
35743;SDS011;21867;52.012;4.324;2023-09-19T14:58:09;9.33;;;3.70;;
35743;SDS011;21867;52.012;4.324;2023-09-19T15:00:37;8.17;;;3.40;;
35743;SDS011;21867;52.012;4.324;2023-09-19T15:03:04;10.53;;;3.60;;
35743;SDS011;21867;52.012;4.324;2023-09-19T15:05:32;10.63;;;3.40;;
35743;SDS011;21867;52.012;4.324;2023-09-19T15:07:59;10.50;;;3.77;;
35743;SDS011;21867;52.012;4.324;2023-09-19T15:10:27;9.57;;;2.83;;
35743;SDS011;21867;52.012;4.324;2023-09-19T15:12:55;14.40;;;4.13;;
35743;SDS011;21867;52.012;4.324;2023-09-19T15:18:12;12.73;;;3.97;;
35743;SDS011;21867;52.012;4.324;2023-09-19T15:20:42;13.20;;;4.20;;
35743;SDS011;21867;52.012;4.324;2023-09-19T15:23:09;16.53;;;4.50;;
35743;SDS011;21867;52.012;4.324;2023-09-19T15:25:37;16.40;;;3.57;;
35743;SDS011;21867;52.012;4.324;2023-09-19T15:28:05;12.10;;;4.00;;
35743;SDS011;21867;52.012;4.324;2023-09-19T15:36:51;14.80;;;4.40;;
35743;SDS011;21867;52.012;4.324;2023-09-19T15:39:19;11.53;;;3.80;;
35743;SDS011;21867;52.012;4.324;2023-09-19T15:41:46;9.23;;;4.20;;
35743;SDS011;21867;52.012;4.324;2023-09-19T15:44:15;9.47;;;3.83;;
35743;SDS011;21867;52.012;4.324;2023-09-19T15:46:43;8.37;;;3.17;;
35743;SDS011;21867;52.012;4.324;2023-09-19T15:49:11;14.37;;;3.97;;
35743;SDS011;21867;52.012;4.324;2023-09-19T15:51:38;6.70;;;2.97;;
35743;SDS011;21867;52.012;4.324;2023-09-19T15:54:07;10.00;;;3.33;;
35743;SDS011;21867;52.012;4.324;2023-09-19T15:56:34;9.70;;;3.60;;
35743;SDS011;21867;52.012;4.324;2023-09-19T15:59:02;10.90;;;3.90;;
35743;SDS011;21867;52.012;4.324;2023-09-19T16:01:31;7.23;;;3.77;;
35743;SDS011;21867;52.012;4.324;2023-09-19T16:03:58;10.27;;;3.23;;
35743;SDS011;21867;52.012;4.324;2023-09-19T16:06:26;10.87;;;3.97;;
35743;SDS011;21867;52.012;4.324;2023-09-19T16:08:54;11.90;;;4.60;;
35743;SDS011;21867;52.012;4.324;2023-09-19T16:11:22;11.82;;;4.15;;
35743;SDS011;21867;52.012;4.324;2023-09-19T16:13:50;17.70;;;4.80;;
35743;SDS011;21867;52.012;4.324;2023-09-19T16:16:19;9.50;;;3.70;;
35743;SDS011;21867;52.012;4.324;2023-09-19T16:18:49;12.83;;;4.77;;
35743;SDS011;21867;52.012;4.324;2023-09-19T16:21:16;18.37;;;4.00;;
35743;SDS011;21867;52.012;4.324;2023-09-19T16:23:45;8.87;;;3.57;;
35743;SDS011;21867;52.012;4.324;2023-09-19T16:26:12;12.87;;;3.43;;
35743;SDS011;21867;52.012;4.324;2023-09-19T16:28:40;13.30;;;3.67;;
35743;SDS011;21867;52.012;4.324;2023-09-19T16:31:08;11.40;;;3.80;;
35743;SDS011;21867;52.012;4.324;2023-09-19T16:33:36;10.53;;;3.63;;
35743;SDS011;21867;52.012;4.324;2023-09-19T16:36:08;11.30;;;3.93;;
35743;SDS011;21867;52.012;4.324;2023-09-19T16:38:36;8.20;;;3.40;;
35743;SDS011;21867;52.012;4.324;2023-09-19T16:41:05;8.93;;;3.17;;
35743;SDS011;21867;52.012;4.324;2023-09-19T16:43:32;12.37;;;3.73;;
35743;SDS011;21867;52.012;4.324;2023-09-19T16:46:01;12.10;;;4.13;;
35743;SDS011;21867;52.012;4.324;2023-09-19T16:48:32;15.00;;;4.20;;
35743;SDS011;21867;52.012;4.324;2023-09-19T16:51:14;8.37;;;3.67;;
35743;SDS011;21867;52.012;4.324;2023-09-19T16:53:41;9.27;;;3.67;;
35743;SDS011;21867;52.012;4.324;2023-09-19T16:56:09;12.07;;;3.23;;
35743;SDS011;21867;52.012;4.324;2023-09-19T16:58:37;7.53;;;3.50;;
35743;SDS011;21867;52.012;4.324;2023-09-19T17:01:06;10.23;;;4.30;;
35743;SDS011;21867;52.012;4.324;2023-09-19T17:03:33;13.27;;;3.73;;
35743;SDS011;21867;52.012;4.324;2023-09-19T17:06:01;13.27;;;4.17;;
35743;SDS011;21867;52.012;4.324;2023-09-19T17:08:29;13.10;;;3.83;;
35743;SDS011;21867;52.012;4.324;2023-09-19T17:11:01;10.27;;;3.60;;
35743;SDS011;21867;52.012;4.324;2023-09-19T17:13:28;9.23;;;3.53;;
35743;SDS011;21867;52.012;4.324;2023-09-19T17:15:59;12.73;;;3.97;;
35743;SDS011;21867;52.012;4.324;2023-09-19T17:18:28;10.40;;;3.87;;
35743;SDS011;21867;52.012;4.324;2023-09-19T17:20:55;9.77;;;3.93;;
35743;SDS011;21867;52.012;4.324;2023-09-19T17:23:23;9.90;;;3.75;;
35743;SDS011;21867;52.012;4.324;2023-09-19T17:25:52;11.10;;;4.27;;
35743;SDS011;21867;52.012;4.324;2023-09-19T17:28:24;11.23;;;3.37;;
35743;SDS011;21867;52.012;4.324;2023-09-19T17:30:51;8.67;;;3.73;;
35743;SDS011;21867;52.012;4.324;2023-09-19T17:33:18;10.07;;;3.77;;
35743;SDS011;21867;52.012;4.324;2023-09-19T17:35:46;9.47;;;4.20;;
35743;SDS011;21867;52.012;4.324;2023-09-19T17:38:13;8.93;;;4.40;;
35743;SDS011;21867;52.012;4.324;2023-09-19T17:40:40;9.00;;;4.00;;
35743;SDS011;21867;52.012;4.324;2023-09-19T17:43:09;8.43;;;3.00;;
35743;SDS011;21867;52.012;4.324;2023-09-19T17:45:36;10.20;;;3.40;;
35743;SDS011;21867;52.012;4.324;2023-09-19T17:48:04;9.17;;;3.30;;
35743;SDS011;21867;52.012;4.324;2023-09-19T17:50:31;11.63;;;3.43;;
35743;SDS011;21867;52.012;4.324;2023-09-19T17:52:58;6.90;;;2.73;;
35743;SDS011;21867;52.012;4.324;2023-09-19T17:55:26;7.27;;;3.40;;
35743;SDS011;21867;52.012;4.324;2023-09-19T17:57:53;5.60;;;2.93;;
35743;SDS011;21867;52.012;4.324;2023-09-19T18:00:24;6.70;;;2.93;;